sensor_id;sensor_type;location;lat;lon;timestamp;P1;durP1;ratioP1;P2;durP2;ratioP2
21507;SDS011;10915;54.352;9.074;2022-10-17T00:00:46;17.90;;;4.67;;
21507;SDS011;10915;54.352;9.074;2022-10-17T00:03:11;18.30;;;4.23;;
21507;SDS011;10915;54.352;9.074;2022-10-17T00:05:38;19.80;;;4.80;;
21507;SDS011;10915;54.352;9.074;2022-10-17T00:08:05;17.90;;;4.37;;
21507;SDS011;10915;54.352;9.074;2022-10-17T00:10:31;20.27;;;4.90;;
21507;SDS011;10915;54.352;9.074;2022-10-17T00:12:56;20.20;;;5.33;;
21507;SDS011;10915;54.352;9.074;2022-10-17T00:15:22;24.90;;;5.33;;
21507;SDS011;10915;54.352;9.074;2022-10-17T00:17:48;14.73;;;4.67;;
21507;SDS011;10915;54.352;9.074;2022-10-17T00:20:14;15.13;;;4.70;;
21507;SDS011;10915;54.352;9.074;2022-10-17T00:22:40;17.70;;;5.10;;
21507;SDS011;10915;54.352;9.074;2022-10-17T00:25:06;16.57;;;4.20;;
21507;SDS011;10915;54.352;9.074;2022-10-17T00:27:35;21.80;;;6.07;;
21507;SDS011;10915;54.352;9.074;2022-10-17T00:30:02;16.30;;;4.30;;
21507;SDS011;10915;54.352;9.074;2022-10-17T00:32:29;18.50;;;4.73;;
21507;SDS011;10915;54.352;9.074;2022-10-17T00:34:56;22.53;;;4.03;;
21507;SDS011;10915;54.352;9.074;2022-10-17T00:37:22;19.87;;;5.00;;
21507;SDS011;10915;54.352;9.074;2022-10-17T00:39:48;27.23;;;4.90;;
21507;SDS011;10915;54.352;9.074;2022-10-17T00:42:14;20.57;;;5.73;;
21507;SDS011;10915;54.352;9.074;2022-10-17T00:47:07;24.20;;;5.97;;
21507;SDS011;10915;54.352;9.074;2022-10-17T00:49:38;20.87;;;5.10;;
21507;SDS011;10915;54.352;9.074;2022-10-17T00:52:05;23.50;;;5.63;;
21507;SDS011;10915;54.352;9.074;2022-10-17T00:54:53;29.20;;;6.17;;
21507;SDS011;10915;54.352;9.074;2022-10-17T00:57:26;26.77;;;5.50;;
21507;SDS011;10915;54.352;9.074;2022-10-17T00:59:53;28.27;;;6.57;;
21507;SDS011;10915;54.352;9.074;2022-10-17T01:02:22;25.73;;;5.40;;
21507;SDS011;10915;54.352;9.074;2022-10-17T01:04:49;22.27;;;6.60;;
21507;SDS011;10915;54.352;9.074;2022-10-17T01:07:17;20.00;;;6.63;;
21507;SDS011;10915;54.352;9.074;2022-10-17T01:09:43;21.37;;;6.63;;
21507;SDS011;10915;54.352;9.074;2022-10-17T01:18:07;25.03;;;7.57;;
21507;SDS011;10915;54.352;9.074;2022-10-17T01:37:18;22.23;;;7.13;;
21507;SDS011;10915;54.352;9.074;2022-10-17T01:45:06;17.10;;;6.97;;
21507;SDS011;10915;54.352;9.074;2022-10-17T01:47:52;18.30;;;5.83;;
21507;SDS011;10915;54.352;9.074;2022-10-17T01:50:28;27.90;;;7.87;;
21507;SDS011;10915;54.352;9.074;2022-10-17T01:53:01;35.97;;;8.27;;
21507;SDS011;10915;54.352;9.074;2022-10-17T01:55:34;31.57;;;8.23;;
21507;SDS011;10915;54.352;9.074;2022-10-17T01:58:08;20.47;;;6.90;;
21507;SDS011;10915;54.352;9.074;2022-10-17T02:00:41;25.10;;;6.90;;
21507;SDS011;10915;54.352;9.074;2022-10-17T02:03:11;31.10;;;7.77;;
21507;SDS011;10915;54.352;9.074;2022-10-17T02:05:40;35.17;;;8.90;;
21507;SDS011;10915;54.352;9.074;2022-10-17T02:08:07;24.17;;;7.40;;
21507;SDS011;10915;54.352;9.074;2022-10-17T02:16:06;25.10;;;7.37;;
21507;SDS011;10915;54.352;9.074;2022-10-17T02:22:22;27.17;;;7.43;;
21507;SDS011;10915;54.352;9.074;2022-10-17T02:26:55;29.70;;;8.43;;
21507;SDS011;10915;54.352;9.074;2022-10-17T02:29:47;26.27;;;7.90;;
21507;SDS011;10915;54.352;9.074;2022-10-17T02:32:20;33.37;;;7.83;;
21507;SDS011;10915;54.352;9.074;2022-10-17T02:34:51;27.10;;;7.83;;
21507;SDS011;10915;54.352;9.074;2022-10-17T02:37:22;28.07;;;7.40;;
21507;SDS011;10915;54.352;9.074;2022-10-17T02:39:53;27.40;;;8.18;;
21507;SDS011;10915;54.352;9.074;2022-10-17T02:42:20;31.70;;;8.10;;
21507;SDS011;10915;54.352;9.074;2022-10-17T02:44:48;26.43;;;7.17;;
21507;SDS011;10915;54.352;9.074;2022-10-17T02:47:22;25.43;;;7.60;;
21507;SDS011;10915;54.352;9.074;2022-10-17T02:49:52;29.57;;;7.70;;
21507;SDS011;10915;54.352;9.074;2022-10-17T02:52:27;29.73;;;7.77;;
21507;SDS011;10915;54.352;9.074;2022-10-17T02:54:56;26.30;;;8.15;;
21507;SDS011;10915;54.352;9.074;2022-10-17T02:57:32;22.73;;;6.53;;
21507;SDS011;10915;54.352;9.074;2022-10-17T03:00:10;23.60;;;7.30;;
21507;SDS011;10915;54.352;9.074;2022-10-17T03:02:45;22.53;;;7.07;;
21507;SDS011;10915;54.352;9.074;2022-10-17T03:05:17;28.73;;;7.10;;
21507;SDS011;10915;54.352;9.074;2022-10-17T03:07:44;24.90;;;7.00;;
21507;SDS011;10915;54.352;9.074;2022-10-17T03:10:09;21.03;;;6.77;;
21507;SDS011;10915;54.352;9.074;2022-10-17T03:12:35;20.23;;;6.50;;
21507;SDS011;10915;54.352;9.074;2022-10-17T03:15:01;23.53;;;6.73;;
21507;SDS011;10915;54.352;9.074;2022-10-17T03:17:27;25.97;;;6.03;;
21507;SDS011;10915;54.352;9.074;2022-10-17T03:19:52;25.53;;;6.17;;
21507;SDS011;10915;54.352;9.074;2022-10-17T03:22:18;18.70;;;5.93;;
21507;SDS011;10915;54.352;9.074;2022-10-17T03:24:44;23.10;;;6.70;;
21507;SDS011;10915;54.352;9.074;2022-10-17T03:27:09;20.33;;;6.37;;
21507;SDS011;10915;54.352;9.074;2022-10-17T03:29:35;18.70;;;5.73;;
21507;SDS011;10915;54.352;9.074;2022-10-17T03:32:01;17.07;;;5.57;;
21507;SDS011;10915;54.352;9.074;2022-10-17T03:34:27;18.90;;;5.63;;
21507;SDS011;10915;54.352;9.074;2022-10-17T03:36:53;21.30;;;5.17;;
21507;SDS011;10915;54.352;9.074;2022-10-17T03:39:18;21.60;;;5.63;;
21507;SDS011;10915;54.352;9.074;2022-10-17T03:41:44;19.87;;;6.07;;
21507;SDS011;10915;54.352;9.074;2022-10-17T03:44:10;20.38;;;5.50;;
21507;SDS011;10915;54.352;9.074;2022-10-17T03:46:36;17.93;;;5.37;;
21507;SDS011;10915;54.352;9.074;2022-10-17T03:49:02;17.63;;;5.30;;
21507;SDS011;10915;54.352;9.074;2022-10-17T03:51:28;18.00;;;4.73;;
21507;SDS011;10915;54.352;9.074;2022-10-17T03:53:53;17.33;;;4.80;;
21507;SDS011;10915;54.352;9.074;2022-10-17T03:56:20;20.33;;;5.03;;
21507;SDS011;10915;54.352;9.074;2022-10-17T03:58:48;17.77;;;4.90;;
21507;SDS011;10915;54.352;9.074;2022-10-17T04:01:14;12.53;;;4.73;;
21507;SDS011;10915;54.352;9.074;2022-10-17T04:03:41;17.20;;;5.17;;
21507;SDS011;10915;54.352;9.074;2022-10-17T04:06:08;16.77;;;4.93;;
21507;SDS011;10915;54.352;9.074;2022-10-17T04:08:36;19.60;;;5.00;;
21507;SDS011;10915;54.352;9.074;2022-10-17T04:11:03;15.20;;;4.73;;
21507;SDS011;10915;54.352;9.074;2022-10-17T04:13:31;15.20;;;4.10;;
21507;SDS011;10915;54.352;9.074;2022-10-17T04:16:02;20.37;;;4.97;;
21507;SDS011;10915;54.352;9.074;2022-10-17T04:18:30;15.10;;;4.70;;
21507;SDS011;10915;54.352;9.074;2022-10-17T04:20:56;15.17;;;5.03;;
21507;SDS011;10915;54.352;9.074;2022-10-17T04:23:22;19.83;;;5.73;;
21507;SDS011;10915;54.352;9.074;2022-10-17T04:25:48;19.57;;;5.63;;
21507;SDS011;10915;54.352;9.074;2022-10-17T04:28:14;15.67;;;3.70;;
21507;SDS011;10915;54.352;9.074;2022-10-17T04:30:39;16.63;;;4.07;;
21507;SDS011;10915;54.352;9.074;2022-10-17T04:33:05;18.50;;;4.80;;
21507;SDS011;10915;54.352;9.074;2022-10-17T04:35:31;15.37;;;4.63;;
21507;SDS011;10915;54.352;9.074;2022-10-17T04:37:57;13.87;;;4.70;;
21507;SDS011;10915;54.352;9.074;2022-10-17T04:40:22;17.53;;;4.57;;
21507;SDS011;10915;54.352;9.074;2022-10-17T04:42:48;17.60;;;4.80;;
21507;SDS011;10915;54.352;9.074;2022-10-17T04:45:14;10.60;;;4.37;;
21507;SDS011;10915;54.352;9.074;2022-10-17T04:47:39;14.20;;;4.90;;
21507;SDS011;10915;54.352;9.074;2022-10-17T04:50:05;13.00;;;3.93;;
21507;SDS011;10915;54.352;9.074;2022-10-17T04:52:32;12.10;;;4.43;;
21507;SDS011;10915;54.352;9.074;2022-10-17T04:54:59;12.37;;;3.87;;
21507;SDS011;10915;54.352;9.074;2022-10-17T04:57:24;14.90;;;5.17;;
21507;SDS011;10915;54.352;9.074;2022-10-17T04:59:50;12.10;;;3.60;;
21507;SDS011;10915;54.352;9.074;2022-10-17T05:02:16;9.93;;;3.90;;
21507;SDS011;10915;54.352;9.074;2022-10-17T05:04:41;15.87;;;4.00;;
21507;SDS011;10915;54.352;9.074;2022-10-17T05:07:07;15.67;;;4.57;;
21507;SDS011;10915;54.352;9.074;2022-10-17T05:09:32;17.90;;;5.13;;
21507;SDS011;10915;54.352;9.074;2022-10-17T05:11:58;9.87;;;3.80;;
21507;SDS011;10915;54.352;9.074;2022-10-17T05:14:24;10.73;;;3.60;;
21507;SDS011;10915;54.352;9.074;2022-10-17T05:16:49;11.87;;;4.10;;
21507;SDS011;10915;54.352;9.074;2022-10-17T05:19:15;9.13;;;3.77;;
21507;SDS011;10915;54.352;9.074;2022-10-17T05:21:42;10.70;;;4.00;;
21507;SDS011;10915;54.352;9.074;2022-10-17T05:24:08;9.73;;;3.80;;
21507;SDS011;10915;54.352;9.074;2022-10-17T05:26:35;12.57;;;4.03;;
21507;SDS011;10915;54.352;9.074;2022-10-17T05:29:01;6.03;;;3.43;;
21507;SDS011;10915;54.352;9.074;2022-10-17T05:31:28;13.80;;;4.23;;
21507;SDS011;10915;54.352;9.074;2022-10-17T05:33:54;16.40;;;4.70;;
21507;SDS011;10915;54.352;9.074;2022-10-17T05:36:24;9.10;;;3.70;;
21507;SDS011;10915;54.352;9.074;2022-10-17T05:38:50;14.40;;;4.23;;
21507;SDS011;10915;54.352;9.074;2022-10-17T05:41:16;12.33;;;4.63;;
21507;SDS011;10915;54.352;9.074;2022-10-17T05:43:42;13.70;;;4.63;;
21507;SDS011;10915;54.352;9.074;2022-10-17T05:46:08;13.53;;;4.67;;
21507;SDS011;10915;54.352;9.074;2022-10-17T05:48:34;12.77;;;4.47;;
21507;SDS011;10915;54.352;9.074;2022-10-17T05:51:01;12.87;;;4.17;;
21507;SDS011;10915;54.352;9.074;2022-10-17T05:53:31;12.83;;;4.40;;
21507;SDS011;10915;54.352;9.074;2022-10-17T05:56:00;13.03;;;4.43;;
21507;SDS011;10915;54.352;9.074;2022-10-17T05:58:29;12.67;;;4.33;;
21507;SDS011;10915;54.352;9.074;2022-10-17T06:00:56;11.17;;;4.43;;
21507;SDS011;10915;54.352;9.074;2022-10-17T06:03:24;9.33;;;4.27;;
21507;SDS011;10915;54.352;9.074;2022-10-17T06:05:50;11.60;;;5.07;;
21507;SDS011;10915;54.352;9.074;2022-10-17T06:08:16;10.30;;;4.40;;
21507;SDS011;10915;54.352;9.074;2022-10-17T06:10:42;9.60;;;4.40;;
21507;SDS011;10915;54.352;9.074;2022-10-17T06:13:07;10.27;;;4.97;;
21507;SDS011;10915;54.352;9.074;2022-10-17T06:15:33;13.43;;;5.20;;
21507;SDS011;10915;54.352;9.074;2022-10-17T06:17:59;15.57;;;5.50;;
21507;SDS011;10915;54.352;9.074;2022-10-17T06:20:24;10.60;;;4.53;;
21507;SDS011;10915;54.352;9.074;2022-10-17T06:22:50;13.80;;;5.90;;
21507;SDS011;10915;54.352;9.074;2022-10-17T06:25:16;14.60;;;5.35;;
21507;SDS011;10915;54.352;9.074;2022-10-17T06:27:41;11.83;;;5.43;;
21507;SDS011;10915;54.352;9.074;2022-10-17T06:30:07;9.10;;;4.57;;
21507;SDS011;10915;54.352;9.074;2022-10-17T06:32:33;8.13;;;4.30;;
21507;SDS011;10915;54.352;9.074;2022-10-17T06:34:58;9.40;;;5.23;;
21507;SDS011;10915;54.352;9.074;2022-10-17T06:37:24;6.57;;;3.80;;
21507;SDS011;10915;54.352;9.074;2022-10-17T06:39:49;9.37;;;4.07;;
21507;SDS011;10915;54.352;9.074;2022-10-17T06:42:15;12.07;;;5.30;;
21507;SDS011;10915;54.352;9.074;2022-10-17T06:44:41;13.07;;;5.20;;
21507;SDS011;10915;54.352;9.074;2022-10-17T06:47:07;10.93;;;5.23;;
21507;SDS011;10915;54.352;9.074;2022-10-17T06:49:33;8.77;;;4.77;;
21507;SDS011;10915;54.352;9.074;2022-10-17T06:51:59;8.10;;;4.67;;
21507;SDS011;10915;54.352;9.074;2022-10-17T06:54:24;11.87;;;5.67;;
21507;SDS011;10915;54.352;9.074;2022-10-17T06:56:51;16.43;;;6.10;;
21507;SDS011;10915;54.352;9.074;2022-10-17T06:59:17;11.37;;;5.37;;
21507;SDS011;10915;54.352;9.074;2022-10-17T07:01:43;11.77;;;5.40;;
21507;SDS011;10915;54.352;9.074;2022-10-17T07:04:08;10.73;;;5.27;;
21507;SDS011;10915;54.352;9.074;2022-10-17T07:06:34;14.60;;;5.87;;
21507;SDS011;10915;54.352;9.074;2022-10-17T07:09:00;10.80;;;5.20;;
21507;SDS011;10915;54.352;9.074;2022-10-17T07:11:26;10.30;;;5.17;;
21507;SDS011;10915;54.352;9.074;2022-10-17T07:13:52;12.27;;;5.53;;
21507;SDS011;10915;54.352;9.074;2022-10-17T07:16:18;10.93;;;5.43;;
21507;SDS011;10915;54.352;9.074;2022-10-17T07:18:47;13.03;;;5.50;;
21507;SDS011;10915;54.352;9.074;2022-10-17T07:21:13;10.40;;;5.00;;
21507;SDS011;10915;54.352;9.074;2022-10-17T07:23:39;7.60;;;4.90;;
21507;SDS011;10915;54.352;9.074;2022-10-17T07:26:06;11.00;;;5.50;;
21507;SDS011;10915;54.352;9.074;2022-10-17T07:28:35;11.33;;;5.40;;
21507;SDS011;10915;54.352;9.074;2022-10-17T07:31:03;6.17;;;4.57;;
21507;SDS011;10915;54.352;9.074;2022-10-17T07:33:36;10.73;;;5.00;;
21507;SDS011;10915;54.352;9.074;2022-10-17T07:36:02;8.90;;;4.93;;
21507;SDS011;10915;54.352;9.074;2022-10-17T07:38:29;12.87;;;5.50;;
21507;SDS011;10915;54.352;9.074;2022-10-17T07:40:56;13.43;;;5.10;;
21507;SDS011;10915;54.352;9.074;2022-10-17T07:43:23;11.67;;;4.50;;
21507;SDS011;10915;54.352;9.074;2022-10-17T07:45:50;8.33;;;5.23;;
21507;SDS011;10915;54.352;9.074;2022-10-17T07:48:16;11.20;;;4.80;;
21507;SDS011;10915;54.352;9.074;2022-10-17T07:50:43;6.97;;;4.53;;
21507;SDS011;10915;54.352;9.074;2022-10-17T07:53:08;8.97;;;4.20;;
21507;SDS011;10915;54.352;9.074;2022-10-17T07:55:38;8.13;;;4.40;;
21507;SDS011;10915;54.352;9.074;2022-10-17T07:58:04;10.23;;;4.80;;
21507;SDS011;10915;54.352;9.074;2022-10-17T08:00:30;7.40;;;4.63;;
21507;SDS011;10915;54.352;9.074;2022-10-17T08:02:56;9.63;;;4.60;;
21507;SDS011;10915;54.352;9.074;2022-10-17T08:05:22;9.27;;;4.97;;
21507;SDS011;10915;54.352;9.074;2022-10-17T08:07:47;7.40;;;5.13;;
21507;SDS011;10915;54.352;9.074;2022-10-17T08:10:14;6.93;;;4.10;;
21507;SDS011;10915;54.352;9.074;2022-10-17T08:12:39;8.73;;;5.00;;
21507;SDS011;10915;54.352;9.074;2022-10-17T08:15:07;6.70;;;5.00;;
21507;SDS011;10915;54.352;9.074;2022-10-17T08:17:41;9.37;;;5.23;;
21507;SDS011;10915;54.352;9.074;2022-10-17T08:20:06;11.10;;;5.50;;
21507;SDS011;10915;54.352;9.074;2022-10-17T08:22:32;13.80;;;5.70;;
21507;SDS011;10915;54.352;9.074;2022-10-17T08:24:58;7.37;;;4.77;;
21507;SDS011;10915;54.352;9.074;2022-10-17T08:27:24;8.33;;;5.03;;
21507;SDS011;10915;54.352;9.074;2022-10-17T08:29:51;8.13;;;5.40;;
21507;SDS011;10915;54.352;9.074;2022-10-17T08:32:19;8.40;;;4.97;;
21507;SDS011;10915;54.352;9.074;2022-10-17T08:34:45;8.47;;;5.33;;
21507;SDS011;10915;54.352;9.074;2022-10-17T08:37:14;6.73;;;5.07;;
21507;SDS011;10915;54.352;9.074;2022-10-17T08:39:40;9.07;;;4.77;;
21507;SDS011;10915;54.352;9.074;2022-10-17T08:42:33;7.20;;;4.97;;
21507;SDS011;10915;54.352;9.074;2022-10-17T08:48:08;10.37;;;5.37;;
21507;SDS011;10915;54.352;9.074;2022-10-17T08:50:53;9.27;;;6.20;;
21507;SDS011;10915;54.352;9.074;2022-10-17T08:53:38;8.03;;;5.63;;
21507;SDS011;10915;54.352;9.074;2022-10-17T08:56:17;9.47;;;6.40;;
21507;SDS011;10915;54.352;9.074;2022-10-17T08:58:52;13.83;;;7.17;;
21507;SDS011;10915;54.352;9.074;2022-10-17T09:06:54;8.77;;;6.30;;
21507;SDS011;10915;54.352;9.074;2022-10-17T09:12:23;10.23;;;5.63;;
21507;SDS011;10915;54.352;9.074;2022-10-17T09:17:46;7.53;;;5.00;;
21507;SDS011;10915;54.352;9.074;2022-10-17T09:20:19;7.10;;;4.83;;
21507;SDS011;10915;54.352;9.074;2022-10-17T09:22:51;6.40;;;4.90;;
21507;SDS011;10915;54.352;9.074;2022-10-17T09:25:25;8.23;;;5.03;;
21507;SDS011;10915;54.352;9.074;2022-10-17T09:27:53;9.23;;;4.93;;
21507;SDS011;10915;54.352;9.074;2022-10-17T09:30:43;7.20;;;4.87;;
21507;SDS011;10915;54.352;9.074;2022-10-17T09:33:25;8.70;;;4.80;;
21507;SDS011;10915;54.352;9.074;2022-10-17T09:35:58;7.53;;;5.00;;
21507;SDS011;10915;54.352;9.074;2022-10-17T09:38:28;8.00;;;5.37;;
21507;SDS011;10915;54.352;9.074;2022-10-17T09:41:12;6.70;;;4.83;;
21507;SDS011;10915;54.352;9.074;2022-10-17T09:43:43;8.30;;;5.07;;
21507;SDS011;10915;54.352;9.074;2022-10-17T09:46:11;7.87;;;5.10;;
21507;SDS011;10915;54.352;9.074;2022-10-17T09:48:54;6.73;;;5.03;;
21507;SDS011;10915;54.352;9.074;2022-10-17T09:51:27;10.30;;;4.97;;
21507;SDS011;10915;54.352;9.074;2022-10-17T09:53:55;8.97;;;5.30;;
21507;SDS011;10915;54.352;9.074;2022-10-17T09:56:25;7.90;;;4.80;;
21507;SDS011;10915;54.352;9.074;2022-10-17T09:58:52;9.73;;;5.33;;
21507;SDS011;10915;54.352;9.074;2022-10-17T10:07:01;9.80;;;5.10;;
21507;SDS011;10915;54.352;9.074;2022-10-17T10:09:30;8.97;;;5.17;;
21507;SDS011;10915;54.352;9.074;2022-10-17T10:11:58;7.57;;;5.07;;
21507;SDS011;10915;54.352;9.074;2022-10-17T10:16:57;9.73;;;5.43;;
21507;SDS011;10915;54.352;9.074;2022-10-17T10:22:00;6.90;;;5.20;;
21507;SDS011;10915;54.352;9.074;2022-10-17T10:27:39;7.57;;;4.80;;
21507;SDS011;10915;54.352;9.074;2022-10-17T10:30:06;8.83;;;5.10;;
21507;SDS011;10915;54.352;9.074;2022-10-17T10:32:46;6.53;;;4.70;;
21507;SDS011;10915;54.352;9.074;2022-10-17T10:35:21;7.07;;;4.80;;
21507;SDS011;10915;54.352;9.074;2022-10-17T10:37:56;10.83;;;4.47;;
21507;SDS011;10915;54.352;9.074;2022-10-17T10:42:55;8.10;;;5.20;;
21507;SDS011;10915;54.352;9.074;2022-10-17T10:47:56;7.40;;;4.67;;
21507;SDS011;10915;54.352;9.074;2022-10-17T10:56:02;5.93;;;4.93;;
21507;SDS011;10915;54.352;9.074;2022-10-17T11:01:19;7.60;;;4.90;;
21507;SDS011;10915;54.352;9.074;2022-10-17T11:04:03;8.90;;;5.03;;
21507;SDS011;10915;54.352;9.074;2022-10-17T11:06:50;9.53;;;5.10;;
21507;SDS011;10915;54.352;9.074;2022-10-17T11:12:02;9.43;;;5.27;;
21507;SDS011;10915;54.352;9.074;2022-10-17T11:14:41;9.47;;;6.17;;
21507;SDS011;10915;54.352;9.074;2022-10-17T11:17:15;9.67;;;5.93;;
21507;SDS011;10915;54.352;9.074;2022-10-17T11:28:14;12.23;;;6.17;;
21507;SDS011;10915;54.352;9.074;2022-10-17T11:33:26;11.63;;;6.97;;
21507;SDS011;10915;54.352;9.074;2022-10-17T11:36:07;14.30;;;6.83;;
21507;SDS011;10915;54.352;9.074;2022-10-17T11:41:20;14.07;;;7.43;;
21507;SDS011;10915;54.352;9.074;2022-10-17T11:46:40;10.23;;;7.50;;
21507;SDS011;10915;54.352;9.074;2022-10-17T11:49:17;13.27;;;7.83;;
21507;SDS011;10915;54.352;9.074;2022-10-17T11:51:49;10.23;;;7.43;;
21507;SDS011;10915;54.352;9.074;2022-10-17T11:54:28;10.17;;;8.03;;
21507;SDS011;10915;54.352;9.074;2022-10-17T11:59:46;14.43;;;8.43;;
21507;SDS011;10915;54.352;9.074;2022-10-17T12:02:37;10.40;;;8.43;;
21507;SDS011;10915;54.352;9.074;2022-10-17T12:05:24;9.57;;;7.50;;
21507;SDS011;10915;54.352;9.074;2022-10-17T12:10:58;12.27;;;8.47;;
21507;SDS011;10915;54.352;9.074;2022-10-17T12:15:54;13.87;;;8.60;;
21507;SDS011;10915;54.352;9.074;2022-10-17T12:18:22;13.17;;;8.43;;
21507;SDS011;10915;54.352;9.074;2022-10-17T12:20:55;12.77;;;8.40;;
21507;SDS011;10915;54.352;9.074;2022-10-17T12:23:24;15.43;;;8.67;;
21507;SDS011;10915;54.352;9.074;2022-10-17T12:25:55;13.93;;;9.30;;
21507;SDS011;10915;54.352;9.074;2022-10-17T12:28:30;11.93;;;9.03;;
21507;SDS011;10915;54.352;9.074;2022-10-17T12:31:07;14.47;;;9.27;;
21507;SDS011;10915;54.352;9.074;2022-10-17T12:38:41;12.67;;;8.90;;
21507;SDS011;10915;54.352;9.074;2022-10-17T12:41:11;15.43;;;9.77;;
21507;SDS011;10915;54.352;9.074;2022-10-17T12:43:42;13.83;;;9.33;;
21507;SDS011;10915;54.352;9.074;2022-10-17T12:46:10;13.63;;;10.77;;
21507;SDS011;10915;54.352;9.074;2022-10-17T12:51:04;16.27;;;10.27;;
21507;SDS011;10915;54.352;9.074;2022-10-17T12:53:45;12.57;;;9.17;;
21507;SDS011;10915;54.352;9.074;2022-10-17T12:56:29;14.17;;;10.43;;
21507;SDS011;10915;54.352;9.074;2022-10-17T12:58:59;13.17;;;10.40;;
21507;SDS011;10915;54.352;9.074;2022-10-17T13:01:30;12.23;;;10.37;;
21507;SDS011;10915;54.352;9.074;2022-10-17T13:03:57;12.93;;;10.43;;
21507;SDS011;10915;54.352;9.074;2022-10-17T13:06:27;13.43;;;10.60;;
21507;SDS011;10915;54.352;9.074;2022-10-17T13:09:03;22.13;;;10.50;;
21507;SDS011;10915;54.352;9.074;2022-10-17T13:11:32;14.90;;;10.50;;
21507;SDS011;10915;54.352;9.074;2022-10-17T13:14:01;16.83;;;10.60;;
21507;SDS011;10915;54.352;9.074;2022-10-17T13:16:34;14.03;;;10.87;;
21507;SDS011;10915;54.352;9.074;2022-10-17T13:19:14;20.77;;;11.07;;
21507;SDS011;10915;54.352;9.074;2022-10-17T13:21:57;16.97;;;10.77;;
21507;SDS011;10915;54.352;9.074;2022-10-17T13:24:29;15.37;;;10.67;;
21507;SDS011;10915;54.352;9.074;2022-10-17T13:26:56;15.33;;;9.87;;
21507;SDS011;10915;54.352;9.074;2022-10-17T13:29:23;15.67;;;10.80;;
21507;SDS011;10915;54.352;9.074;2022-10-17T13:31:51;14.87;;;11.13;;
21507;SDS011;10915;54.352;9.074;2022-10-17T13:34:22;14.83;;;11.10;;
21507;SDS011;10915;54.352;9.074;2022-10-17T13:36:51;15.67;;;11.17;;
21507;SDS011;10915;54.352;9.074;2022-10-17T13:39:21;18.33;;;10.55;;
21507;SDS011;10915;54.352;9.074;2022-10-17T13:41:48;19.33;;;12.43;;
21507;SDS011;10915;54.352;9.074;2022-10-17T13:44:18;14.53;;;11.73;;
21507;SDS011;10915;54.352;9.074;2022-10-17T13:46:46;17.57;;;10.23;;
21507;SDS011;10915;54.352;9.074;2022-10-17T13:49:27;14.27;;;10.40;;
21507;SDS011;10915;54.352;9.074;2022-10-17T13:51:58;15.50;;;10.37;;
21507;SDS011;10915;54.352;9.074;2022-10-17T13:57:15;14.47;;;9.83;;
21507;SDS011;10915;54.352;9.074;2022-10-17T13:59:44;15.50;;;10.30;;
21507;SDS011;10915;54.352;9.074;2022-10-17T14:02:14;15.13;;;10.30;;
21507;SDS011;10915;54.352;9.074;2022-10-17T14:04:42;15.50;;;10.50;;
21507;SDS011;10915;54.352;9.074;2022-10-17T14:07:20;15.87;;;9.93;;
21507;SDS011;10915;54.352;9.074;2022-10-17T14:09:52;11.40;;;9.33;;
21507;SDS011;10915;54.352;9.074;2022-10-17T14:12:18;15.13;;;8.97;;
21507;SDS011;10915;54.352;9.074;2022-10-17T14:14:49;14.37;;;9.23;;
21507;SDS011;10915;54.352;9.074;2022-10-17T14:17:24;16.00;;;8.40;;
21507;SDS011;10915;54.352;9.074;2022-10-17T14:19:53;16.67;;;8.47;;
21507;SDS011;10915;54.352;9.074;2022-10-17T14:24:48;10.77;;;7.00;;
21507;SDS011;10915;54.352;9.074;2022-10-17T14:29:53;18.63;;;7.17;;
21507;SDS011;10915;54.352;9.074;2022-10-17T14:32:21;12.27;;;7.07;;
21507;SDS011;10915;54.352;9.074;2022-10-17T14:34:51;12.83;;;6.17;;
21507;SDS011;10915;54.352;9.074;2022-10-17T14:39:47;11.23;;;6.57;;
21507;SDS011;10915;54.352;9.074;2022-10-17T14:42:23;13.57;;;6.73;;
21507;SDS011;10915;54.352;9.074;2022-10-17T14:44:49;12.17;;;6.87;;
21507;SDS011;10915;54.352;9.074;2022-10-17T14:47:18;14.73;;;7.17;;
21507;SDS011;10915;54.352;9.074;2022-10-17T14:49:49;15.73;;;7.30;;
21507;SDS011;10915;54.352;9.074;2022-10-17T14:52:26;15.10;;;8.00;;
21507;SDS011;10915;54.352;9.074;2022-10-17T14:54:54;14.17;;;7.97;;
21507;SDS011;10915;54.352;9.074;2022-10-17T14:59:58;17.40;;;8.03;;
21507;SDS011;10915;54.352;9.074;2022-10-17T15:02:25;12.87;;;7.33;;
21507;SDS011;10915;54.352;9.074;2022-10-17T15:04:52;14.13;;;7.40;;
21507;SDS011;10915;54.352;9.074;2022-10-17T15:07:19;12.93;;;8.43;;
21507;SDS011;10915;54.352;9.074;2022-10-17T15:09:46;12.67;;;6.97;;
21507;SDS011;10915;54.352;9.074;2022-10-17T15:12:15;10.40;;;6.67;;
21507;SDS011;10915;54.352;9.074;2022-10-17T15:14:42;13.30;;;6.73;;
21507;SDS011;10915;54.352;9.074;2022-10-17T15:17:10;14.37;;;6.70;;
21507;SDS011;10915;54.352;9.074;2022-10-17T15:19:44;10.50;;;6.63;;
21507;SDS011;10915;54.352;9.074;2022-10-17T15:22:11;13.00;;;6.50;;
21507;SDS011;10915;54.352;9.074;2022-10-17T15:24:37;13.23;;;6.30;;
21507;SDS011;10915;54.352;9.074;2022-10-17T15:27:05;15.53;;;7.37;;
21507;SDS011;10915;54.352;9.074;2022-10-17T15:29:37;14.17;;;7.43;;
21507;SDS011;10915;54.352;9.074;2022-10-17T15:32:03;13.60;;;6.50;;
21507;SDS011;10915;54.352;9.074;2022-10-17T15:34:28;12.40;;;6.17;;
21507;SDS011;10915;54.352;9.074;2022-10-17T15:36:54;14.13;;;6.17;;
21507;SDS011;10915;54.352;9.074;2022-10-17T15:39:20;10.47;;;5.30;;
21507;SDS011;10915;54.352;9.074;2022-10-17T15:41:45;12.93;;;5.73;;
21507;SDS011;10915;54.352;9.074;2022-10-17T15:44:12;10.83;;;5.33;;
21507;SDS011;10915;54.352;9.074;2022-10-17T15:46:38;9.87;;;5.30;;
21507;SDS011;10915;54.352;9.074;2022-10-17T15:49:05;11.47;;;5.73;;
21507;SDS011;10915;54.352;9.074;2022-10-17T15:51:39;10.30;;;4.93;;
21507;SDS011;10915;54.352;9.074;2022-10-17T15:54:04;10.83;;;5.13;;
21507;SDS011;10915;54.352;9.074;2022-10-17T15:56:31;10.33;;;4.83;;
21507;SDS011;10915;54.352;9.074;2022-10-17T15:59:03;8.83;;;4.70;;
21507;SDS011;10915;54.352;9.074;2022-10-17T16:01:30;8.83;;;5.33;;
21507;SDS011;10915;54.352;9.074;2022-10-17T16:03:57;10.23;;;5.30;;
21507;SDS011;10915;54.352;9.074;2022-10-17T16:06:23;11.77;;;5.93;;
21507;SDS011;10915;54.352;9.074;2022-10-17T16:08:49;9.73;;;6.30;;
21507;SDS011;10915;54.352;9.074;2022-10-17T16:11:26;11.50;;;5.80;;
21507;SDS011;10915;54.352;9.074;2022-10-17T16:14:02;12.73;;;6.23;;
21507;SDS011;10915;54.352;9.074;2022-10-17T16:16:29;12.90;;;6.67;;
21507;SDS011;10915;54.352;9.074;2022-10-17T16:18:55;12.17;;;6.07;;
21507;SDS011;10915;54.352;9.074;2022-10-17T16:21:22;10.63;;;5.37;;
21507;SDS011;10915;54.352;9.074;2022-10-17T16:23:53;10.40;;;5.30;;
21507;SDS011;10915;54.352;9.074;2022-10-17T16:26:19;16.83;;;5.60;;
21507;SDS011;10915;54.352;9.074;2022-10-17T16:28:45;12.07;;;5.10;;
21507;SDS011;10915;54.352;9.074;2022-10-17T16:31:16;11.40;;;4.87;;
21507;SDS011;10915;54.352;9.074;2022-10-17T16:33:51;7.60;;;4.80;;
21507;SDS011;10915;54.352;9.074;2022-10-17T16:36:18;9.63;;;4.67;;
21507;SDS011;10915;54.352;9.074;2022-10-17T16:38:44;11.00;;;5.25;;
21507;SDS011;10915;54.352;9.074;2022-10-17T16:41:17;8.50;;;4.40;;
21507;SDS011;10915;54.352;9.074;2022-10-17T16:43:55;12.65;;;4.53;;
21507;SDS011;10915;54.352;9.074;2022-10-17T16:46:23;7.70;;;4.10;;
21507;SDS011;10915;54.352;9.074;2022-10-17T16:48:49;12.90;;;4.20;;
21507;SDS011;10915;54.352;9.074;2022-10-17T16:51:16;10.70;;;3.80;;
21507;SDS011;10915;54.352;9.074;2022-10-17T16:53:43;6.77;;;3.70;;
21507;SDS011;10915;54.352;9.074;2022-10-17T16:56:11;12.80;;;3.67;;
21507;SDS011;10915;54.352;9.074;2022-10-17T16:58:39;6.37;;;3.10;;